Airfield :
LOGIN :

Register | Disclaimer

   EN    FR    IT 

 










Legend :    VFR   Marginal VFR   IFR   Intensive IFR   Very Intensive IFR
Visi :
Ceiling :
>= 8 km
>= 3000ft
5 to 8 km
1000 to 3000 ft
1500m to 5 km
500 to 1000 ft
800 to 1500m
200 to 500 ft
< 800m
< 200 ft
Symbols :   Thunderstorms  Fog  Heavy snow  Heavy precipitations  Wind > 20 kt
SIGMETs :     Misc.  Thunderstorms  Icing  Turbulence  Mountain Waves  Volcanic Ashes







- Airport Elevation : 327 ft
- IATA code : BHX
- Download approach charts


EGBB - Birmingham

CURRENT METAR :
  • 151950Z VRB02KT 9999 FEW028 17/14 Q1022

EXPIRED METARs :
  • 151920Z 26004KT 220V280 9999 SCT028 18/14 Q1022
  • 151850Z 27004KT 210V300 9999 BKN029 18/14 Q1023
  • 151820Z 33005KT 9999 SCT020 BKN029 18/14 Q1023
  • 151750Z 33006KT 9999 SCT021 BKN030 19/14 Q1023
  • 151720Z 32007KT 9999 SCT024 BKN034 19/15 Q1023

TAF TAF EGBB
Valid from the 15 at 18:00 until the 16 at 18:00 UTC


151659Z 1518/1618 26005KT 9999 SCT020 BKN035
PROB40
TEMPO 1522/1603 8000 RA BKN012
BECMG 1603/1606 BKN010
TEMPO 1603/1616 5000 -RADZ BKN007
PROB30
TEMPO 1608/1614 BKN004
BECMG 1615/1618 SCT030
ATIS : +44 121 780 0910
No reported NOTAMs for that airfield.



MET'MAP, your aeronautical weather chart ! - Copyright ORBIFLY December 2007 - Disclaimer

ORBIFLY MET'MAP TEAM :

Programming & Development : Alexandra Zaïnal
Concept & Development : Baudouin d'Aumeries
Co-Development & Prog : Marc-Olivier Méhu
Technical & hardware support : Manuel Goepfert

Contact : metmap@orbifly.com




SOURCES & CREDITS :

   NOAA